sensor_id;sensor_type;location;lat;lon;timestamp;P1;durP1;ratioP1;P2;durP2;ratioP2
25213;SDS011;13160;51.834;4.706;2023-04-15T00:01:57;11.25;;;5.80;;
25213;SDS011;13160;51.834;4.706;2023-04-15T00:04:26;15.10;;;7.30;;
25213;SDS011;13160;51.834;4.706;2023-04-15T00:06:57;12.15;;;6.85;;
25213;SDS011;13160;51.834;4.706;2023-04-15T00:09:25;17.40;;;6.82;;
25213;SDS011;13160;51.834;4.706;2023-04-15T00:11:54;16.92;;;6.65;;
25213;SDS011;13160;51.834;4.706;2023-04-15T00:14:23;14.30;;;6.70;;
25213;SDS011;13160;51.834;4.706;2023-04-15T00:16:52;10.70;;;6.43;;
25213;SDS011;13160;51.834;4.706;2023-04-15T00:19:22;12.68;;;6.22;;
25213;SDS011;13160;51.834;4.706;2023-04-15T00:21:51;13.90;;;6.25;;
25213;SDS011;13160;51.834;4.706;2023-04-15T00:24:19;14.13;;;6.60;;
25213;SDS011;13160;51.834;4.706;2023-04-15T00:26:48;12.00;;;6.55;;
25213;SDS011;13160;51.834;4.706;2023-04-15T00:29:16;12.05;;;6.97;;
25213;SDS011;13160;51.834;4.706;2023-04-15T00:31:48;15.93;;;7.20;;
25213;SDS011;13160;51.834;4.706;2023-04-15T00:34:20;13.85;;;6.68;;
25213;SDS011;13160;51.834;4.706;2023-04-15T00:36:48;13.07;;;6.50;;
25213;SDS011;13160;51.834;4.706;2023-04-15T00:39:17;14.48;;;6.97;;
25213;SDS011;13160;51.834;4.706;2023-04-15T00:41:49;12.93;;;6.93;;
25213;SDS011;13160;51.834;4.706;2023-04-15T00:44:17;13.43;;;6.93;;
25213;SDS011;13160;51.834;4.706;2023-04-15T00:46:45;11.75;;;6.90;;
25213;SDS011;13160;51.834;4.706;2023-04-15T00:49:15;12.85;;;7.47;;
25213;SDS011;13160;51.834;4.706;2023-04-15T00:51:46;17.38;;;7.18;;
25213;SDS011;13160;51.834;4.706;2023-04-15T00:54:15;15.00;;;7.20;;
25213;SDS011;13160;51.834;4.706;2023-04-15T00:56:43;14.63;;;7.82;;
25213;SDS011;13160;51.834;4.706;2023-04-15T00:59:14;10.48;;;6.68;;
25213;SDS011;13160;51.834;4.706;2023-04-15T01:01:46;11.82;;;7.80;;
25213;SDS011;13160;51.834;4.706;2023-04-15T01:04:15;13.18;;;7.68;;
25213;SDS011;13160;51.834;4.706;2023-04-15T01:06:43;12.35;;;7.43;;
25213;SDS011;13160;51.834;4.706;2023-04-15T01:09:16;16.38;;;8.82;;
25213;SDS011;13160;51.834;4.706;2023-04-15T01:11:48;15.10;;;9.07;;
25213;SDS011;13160;51.834;4.706;2023-04-15T01:14:17;14.57;;;8.27;;
25213;SDS011;13160;51.834;4.706;2023-04-15T01:16:45;21.02;;;8.38;;
25213;SDS011;13160;51.834;4.706;2023-04-15T01:19:14;12.52;;;8.05;;
25213;SDS011;13160;51.834;4.706;2023-04-15T01:21:44;14.80;;;8.32;;
25213;SDS011;13160;51.834;4.706;2023-04-15T01:24:17;15.45;;;8.52;;
25213;SDS011;13160;51.834;4.706;2023-04-15T01:26:47;14.25;;;9.35;;
25213;SDS011;13160;51.834;4.706;2023-04-15T01:29:16;14.07;;;8.40;;
25213;SDS011;13160;51.834;4.706;2023-04-15T01:31:48;15.27;;;8.93;;
25213;SDS011;13160;51.834;4.706;2023-04-15T01:34:18;14.43;;;7.80;;
25213;SDS011;13160;51.834;4.706;2023-04-15T01:36:47;16.25;;;8.15;;
25213;SDS011;13160;51.834;4.706;2023-04-15T01:39:16;17.25;;;9.00;;
25213;SDS011;13160;51.834;4.706;2023-04-15T01:41:44;18.05;;;8.60;;
25213;SDS011;13160;51.834;4.706;2023-04-15T01:44:17;14.57;;;9.05;;
25213;SDS011;13160;51.834;4.706;2023-04-15T01:46:47;12.07;;;8.43;;
25213;SDS011;13160;51.834;4.706;2023-04-15T01:49:15;16.15;;;8.70;;
25213;SDS011;13160;51.834;4.706;2023-04-15T01:51:44;19.48;;;8.52;;
25213;SDS011;13160;51.834;4.706;2023-04-15T01:54:14;15.02;;;8.77;;
25213;SDS011;13160;51.834;4.706;2023-04-15T01:56:42;17.10;;;8.98;;
25213;SDS011;13160;51.834;4.706;2023-04-15T01:59:12;12.77;;;8.10;;
25213;SDS011;13160;51.834;4.706;2023-04-15T02:01:40;17.60;;;8.52;;
25213;SDS011;13160;51.834;4.706;2023-04-15T02:04:09;16.58;;;8.85;;
25213;SDS011;13160;51.834;4.706;2023-04-15T02:06:41;13.75;;;8.05;;
25213;SDS011;13160;51.834;4.706;2023-04-15T02:09:11;19.20;;;8.10;;
25213;SDS011;13160;51.834;4.706;2023-04-15T02:11:39;13.77;;;7.85;;
25213;SDS011;13160;51.834;4.706;2023-04-15T02:14:08;18.35;;;8.45;;
25213;SDS011;13160;51.834;4.706;2023-04-15T02:16:38;14.93;;;7.50;;
25213;SDS011;13160;51.834;4.706;2023-04-15T02:19:06;11.82;;;7.75;;
25213;SDS011;13160;51.834;4.706;2023-04-15T02:21:35;12.52;;;7.10;;
25213;SDS011;13160;51.834;4.706;2023-04-15T02:24:03;15.90;;;7.55;;
25213;SDS011;13160;51.834;4.706;2023-04-15T02:26:32;12.50;;;7.72;;
25213;SDS011;13160;51.834;4.706;2023-04-15T02:29:01;12.77;;;8.10;;
25213;SDS011;13160;51.834;4.706;2023-04-15T02:31:29;15.23;;;7.63;;
25213;SDS011;13160;51.834;4.706;2023-04-15T02:34:03;12.77;;;7.68;;
25213;SDS011;13160;51.834;4.706;2023-04-15T02:36:32;12.55;;;7.38;;
25213;SDS011;13160;51.834;4.706;2023-04-15T02:39:00;16.08;;;8.98;;
25213;SDS011;13160;51.834;4.706;2023-04-15T02:41:29;15.45;;;8.60;;
25213;SDS011;13160;51.834;4.706;2023-04-15T02:43:57;17.83;;;10.05;;
25213;SDS011;13160;51.834;4.706;2023-04-15T02:46:26;13.52;;;8.30;;
25213;SDS011;13160;51.834;4.706;2023-04-15T02:48:54;14.02;;;9.23;;
25213;SDS011;13160;51.834;4.706;2023-04-15T02:51:29;13.95;;;9.02;;
25213;SDS011;13160;51.834;4.706;2023-04-15T02:53:57;17.10;;;7.82;;
25213;SDS011;13160;51.834;4.706;2023-04-15T02:56:26;19.27;;;9.13;;
25213;SDS011;13160;51.834;4.706;2023-04-15T02:58:55;18.75;;;8.65;;
25213;SDS011;13160;51.834;4.706;2023-04-15T03:01:24;12.63;;;9.02;;
25213;SDS011;13160;51.834;4.706;2023-04-15T03:03:52;12.85;;;8.35;;
25213;SDS011;13160;51.834;4.706;2023-04-15T03:06:21;15.25;;;8.07;;
25213;SDS011;13160;51.834;4.706;2023-04-15T03:08:51;14.60;;;9.15;;
25213;SDS011;13160;51.834;4.706;2023-04-15T03:11:19;12.32;;;8.05;;
25213;SDS011;13160;51.834;4.706;2023-04-15T03:13:51;15.60;;;8.25;;
25213;SDS011;13160;51.834;4.706;2023-04-15T03:16:20;15.25;;;9.80;;
25213;SDS011;13160;51.834;4.706;2023-04-15T03:18:48;16.52;;;8.90;;
25213;SDS011;13160;51.834;4.706;2023-04-15T03:21:16;13.63;;;8.23;;
25213;SDS011;13160;51.834;4.706;2023-04-15T03:23:48;12.43;;;7.90;;
25213;SDS011;13160;51.834;4.706;2023-04-15T03:26:24;16.63;;;8.45;;
25213;SDS011;13160;51.834;4.706;2023-04-15T03:28:54;16.77;;;8.80;;
25213;SDS011;13160;51.834;4.706;2023-04-15T03:31:23;13.85;;;7.78;;
25213;SDS011;13160;51.834;4.706;2023-04-15T03:33:51;16.15;;;7.88;;
25213;SDS011;13160;51.834;4.706;2023-04-15T03:36:20;14.82;;;7.78;;
25213;SDS011;13160;51.834;4.706;2023-04-15T03:38:48;10.73;;;7.22;;
25213;SDS011;13160;51.834;4.706;2023-04-15T03:41:16;13.48;;;7.43;;
25213;SDS011;13160;51.834;4.706;2023-04-15T03:43:46;11.65;;;7.55;;
25213;SDS011;13160;51.834;4.706;2023-04-15T03:46:17;14.10;;;7.68;;
25213;SDS011;13160;51.834;4.706;2023-04-15T03:48:45;15.70;;;7.40;;
25213;SDS011;13160;51.834;4.706;2023-04-15T03:51:14;16.52;;;7.60;;
25213;SDS011;13160;51.834;4.706;2023-04-15T03:53:42;15.30;;;7.95;;
25213;SDS011;13160;51.834;4.706;2023-04-15T03:56:11;12.43;;;6.82;;
25213;SDS011;13160;51.834;4.706;2023-04-15T03:58:39;14.02;;;7.80;;
25213;SDS011;13160;51.834;4.706;2023-04-15T04:01:09;16.20;;;8.02;;
25213;SDS011;13160;51.834;4.706;2023-04-15T04:03:37;13.95;;;7.82;;
25213;SDS011;13160;51.834;4.706;2023-04-15T04:06:06;17.83;;;8.32;;
25213;SDS011;13160;51.834;4.706;2023-04-15T04:08:35;11.88;;;7.38;;
25213;SDS011;13160;51.834;4.706;2023-04-15T04:11:04;14.05;;;8.05;;
25213;SDS011;13160;51.834;4.706;2023-04-15T04:13:32;12.77;;;7.55;;
25213;SDS011;13160;51.834;4.706;2023-04-15T04:16:00;12.38;;;7.18;;
25213;SDS011;13160;51.834;4.706;2023-04-15T04:18:31;13.02;;;7.53;;
25213;SDS011;13160;51.834;4.706;2023-04-15T04:21:00;12.82;;;7.47;;
25213;SDS011;13160;51.834;4.706;2023-04-15T04:23:28;13.93;;;7.13;;
25213;SDS011;13160;51.834;4.706;2023-04-15T04:25:56;11.25;;;7.15;;
25213;SDS011;13160;51.834;4.706;2023-04-15T04:28:25;10.70;;;7.25;;
25213;SDS011;13160;51.834;4.706;2023-04-15T04:30:53;12.27;;;7.68;;
25213;SDS011;13160;51.834;4.706;2023-04-15T04:33:22;14.82;;;8.07;;
25213;SDS011;13160;51.834;4.706;2023-04-15T04:35:51;13.30;;;6.85;;
25213;SDS011;13160;51.834;4.706;2023-04-15T04:38:20;11.80;;;7.47;;
25213;SDS011;13160;51.834;4.706;2023-04-15T04:40:50;11.45;;;8.23;;
25213;SDS011;13160;51.834;4.706;2023-04-15T04:43:19;13.65;;;8.18;;
25213;SDS011;13160;51.834;4.706;2023-04-15T04:45:48;14.43;;;7.88;;
25213;SDS011;13160;51.834;4.706;2023-04-15T04:48:16;14.35;;;8.00;;
25213;SDS011;13160;51.834;4.706;2023-04-15T04:50:48;15.15;;;7.80;;
25213;SDS011;13160;51.834;4.706;2023-04-15T04:53:17;13.90;;;8.35;;
25213;SDS011;13160;51.834;4.706;2023-04-15T04:55:45;13.43;;;8.35;;
25213;SDS011;13160;51.834;4.706;2023-04-15T04:58:17;14.60;;;8.50;;
25213;SDS011;13160;51.834;4.706;2023-04-15T05:00:45;15.00;;;8.10;;
25213;SDS011;13160;51.834;4.706;2023-04-15T05:03:17;13.57;;;8.30;;
25213;SDS011;13160;51.834;4.706;2023-04-15T05:05:49;17.50;;;9.00;;
25213;SDS011;13160;51.834;4.706;2023-04-15T05:08:18;15.88;;;8.57;;
25213;SDS011;13160;51.834;4.706;2023-04-15T05:10:47;16.77;;;8.52;;
25213;SDS011;13160;51.834;4.706;2023-04-15T05:13:15;13.20;;;8.65;;
25213;SDS011;13160;51.834;4.706;2023-04-15T05:15:43;15.88;;;9.05;;
25213;SDS011;13160;51.834;4.706;2023-04-15T05:18:12;12.57;;;8.68;;
25213;SDS011;13160;51.834;4.706;2023-04-15T05:20:41;19.13;;;8.40;;
25213;SDS011;13160;51.834;4.706;2023-04-15T05:23:09;13.88;;;8.80;;
25213;SDS011;13160;51.834;4.706;2023-04-15T05:25:39;17.70;;;9.50;;
25213;SDS011;13160;51.834;4.706;2023-04-15T05:28:07;18.50;;;9.52;;
25213;SDS011;13160;51.834;4.706;2023-04-15T05:30:36;13.45;;;8.57;;
25213;SDS011;13160;51.834;4.706;2023-04-15T05:33:05;17.23;;;9.70;;
25213;SDS011;13160;51.834;4.706;2023-04-15T05:35:33;13.50;;;8.45;;
25213;SDS011;13160;51.834;4.706;2023-04-15T05:38:02;13.55;;;8.85;;
25213;SDS011;13160;51.834;4.706;2023-04-15T05:40:30;15.13;;;9.57;;
25213;SDS011;13160;51.834;4.706;2023-04-15T05:43:00;18.23;;;9.63;;
25213;SDS011;13160;51.834;4.706;2023-04-15T05:45:29;14.80;;;8.63;;
25213;SDS011;13160;51.834;4.706;2023-04-15T05:47:57;14.07;;;9.45;;
25213;SDS011;13160;51.834;4.706;2023-04-15T05:50:26;16.77;;;8.85;;
25213;SDS011;13160;51.834;4.706;2023-04-15T05:52:54;17.83;;;9.23;;
25213;SDS011;13160;51.834;4.706;2023-04-15T05:55:23;18.13;;;10.48;;
25213;SDS011;13160;51.834;4.706;2023-04-15T05:57:51;13.80;;;9.30;;
25213;SDS011;13160;51.834;4.706;2023-04-15T06:00:21;15.35;;;9.30;;
25213;SDS011;13160;51.834;4.706;2023-04-15T06:02:49;15.75;;;10.10;;
25213;SDS011;13160;51.834;4.706;2023-04-15T06:05:18;13.50;;;9.00;;
25213;SDS011;13160;51.834;4.706;2023-04-15T06:07:46;15.30;;;8.95;;
25213;SDS011;13160;51.834;4.706;2023-04-15T06:10:15;16.35;;;10.50;;
25213;SDS011;13160;51.834;4.706;2023-04-15T06:12:44;17.63;;;10.57;;
25213;SDS011;13160;51.834;4.706;2023-04-15T06:15:15;15.60;;;10.02;;
25213;SDS011;13160;51.834;4.706;2023-04-15T06:17:46;18.00;;;9.77;;
25213;SDS011;13160;51.834;4.706;2023-04-15T06:20:14;14.05;;;9.52;;
25213;SDS011;13160;51.834;4.706;2023-04-15T06:22:43;16.45;;;10.07;;
25213;SDS011;13160;51.834;4.706;2023-04-15T06:25:15;16.90;;;9.88;;
25213;SDS011;13160;51.834;4.706;2023-04-15T06:27:56;17.35;;;9.68;;
25213;SDS011;13160;51.834;4.706;2023-04-15T06:30:25;15.77;;;10.27;;
25213;SDS011;13160;51.834;4.706;2023-04-15T06:32:55;16.48;;;10.13;;
25213;SDS011;13160;51.834;4.706;2023-04-15T06:35:24;18.75;;;10.68;;
25213;SDS011;13160;51.834;4.706;2023-04-15T06:37:52;17.27;;;10.50;;
25213;SDS011;13160;51.834;4.706;2023-04-15T06:40:21;17.63;;;11.00;;
25213;SDS011;13160;51.834;4.706;2023-04-15T06:42:49;19.88;;;10.85;;
25213;SDS011;13160;51.834;4.706;2023-04-15T06:45:17;19.25;;;11.82;;
25213;SDS011;13160;51.834;4.706;2023-04-15T06:47:48;21.15;;;10.48;;
25213;SDS011;13160;51.834;4.706;2023-04-15T06:50:17;18.63;;;11.18;;
25213;SDS011;13160;51.834;4.706;2023-04-15T06:52:49;19.15;;;11.07;;
25213;SDS011;13160;51.834;4.706;2023-04-15T06:55:17;17.98;;;10.68;;
25213;SDS011;13160;51.834;4.706;2023-04-15T06:57:47;18.73;;;10.88;;
25213;SDS011;13160;51.834;4.706;2023-04-15T07:00:16;22.60;;;11.45;;
25213;SDS011;13160;51.834;4.706;2023-04-15T07:02:45;16.48;;;10.52;;
25213;SDS011;13160;51.834;4.706;2023-04-15T07:05:15;16.92;;;11.20;;
25213;SDS011;13160;51.834;4.706;2023-04-15T07:07:45;15.32;;;10.02;;
25213;SDS011;13160;51.834;4.706;2023-04-15T07:10:17;11.57;;;8.45;;
25213;SDS011;13160;51.834;4.706;2023-04-15T07:12:48;13.50;;;8.68;;
25213;SDS011;13160;51.834;4.706;2023-04-15T07:15:16;15.10;;;8.82;;
25213;SDS011;13160;51.834;4.706;2023-04-15T07:17:45;14.38;;;8.73;;
25213;SDS011;13160;51.834;4.706;2023-04-15T07:20:14;10.80;;;8.23;;
25213;SDS011;13160;51.834;4.706;2023-04-15T07:22:44;12.73;;;8.10;;
25213;SDS011;13160;51.834;4.706;2023-04-15T07:25:15;14.60;;;8.52;;
25213;SDS011;13160;51.834;4.706;2023-04-15T07:27:44;12.32;;;8.00;;
25213;SDS011;13160;51.834;4.706;2023-04-15T07:30:15;14.23;;;8.48;;
25213;SDS011;13160;51.834;4.706;2023-04-15T07:32:44;13.15;;;8.25;;
25213;SDS011;13160;51.834;4.706;2023-04-15T07:35:12;15.50;;;8.85;;
25213;SDS011;13160;51.834;4.706;2023-04-15T07:37:40;11.75;;;8.43;;
25213;SDS011;13160;51.834;4.706;2023-04-15T07:40:11;14.73;;;8.75;;
25213;SDS011;13160;51.834;4.706;2023-04-15T07:42:39;14.52;;;8.02;;
25213;SDS011;13160;51.834;4.706;2023-04-15T07:45:12;12.68;;;8.00;;
25213;SDS011;13160;51.834;4.706;2023-04-15T07:48:21;12.23;;;7.32;;
25213;SDS011;13160;51.834;4.706;2023-04-15T07:50:52;12.13;;;7.78;;
25213;SDS011;13160;51.834;4.706;2023-04-15T07:53:27;12.95;;;8.98;;
25213;SDS011;13160;51.834;4.706;2023-04-15T07:56:24;13.32;;;8.65;;
25213;SDS011;13160;51.834;4.706;2023-04-15T07:59:40;12.32;;;8.85;;
25213;SDS011;13160;51.834;4.706;2023-04-15T08:02:09;13.30;;;8.48;;
25213;SDS011;13160;51.834;4.706;2023-04-15T08:04:43;13.68;;;8.95;;
25213;SDS011;13160;51.834;4.706;2023-04-15T08:07:14;11.88;;;8.60;;
25213;SDS011;13160;51.834;4.706;2023-04-15T08:09:51;12.40;;;8.80;;
25213;SDS011;13160;51.834;4.706;2023-04-15T08:12:34;11.73;;;8.90;;
25213;SDS011;13160;51.834;4.706;2023-04-15T08:15:07;12.23;;;9.07;;
25213;SDS011;13160;51.834;4.706;2023-04-15T08:17:53;12.68;;;8.48;;
25213;SDS011;13160;51.834;4.706;2023-04-15T08:20:23;11.80;;;8.15;;
25213;SDS011;13160;51.834;4.706;2023-04-15T08:23:06;11.50;;;8.35;;
25213;SDS011;13160;51.834;4.706;2023-04-15T08:25:34;12.00;;;8.18;;
25213;SDS011;13160;51.834;4.706;2023-04-15T08:28:04;10.90;;;7.53;;
25213;SDS011;13160;51.834;4.706;2023-04-15T08:30:35;12.30;;;8.00;;
25213;SDS011;13160;51.834;4.706;2023-04-15T08:33:06;11.85;;;7.45;;
25213;SDS011;13160;51.834;4.706;2023-04-15T08:35:52;12.07;;;8.05;;
25213;SDS011;13160;51.834;4.706;2023-04-15T08:38:22;11.52;;;8.15;;
25213;SDS011;13160;51.834;4.706;2023-04-15T08:40:51;11.68;;;8.38;;
25213;SDS011;13160;51.834;4.706;2023-04-15T08:43:27;11.88;;;8.48;;
25213;SDS011;13160;51.834;4.706;2023-04-15T08:48:58;12.88;;;9.02;;
25213;SDS011;13160;51.834;4.706;2023-04-15T08:51:31;11.57;;;8.18;;
25213;SDS011;13160;51.834;4.706;2023-04-15T08:54:00;12.35;;;8.27;;
25213;SDS011;13160;51.834;4.706;2023-04-15T08:56:39;16.55;;;8.68;;
25213;SDS011;13160;51.834;4.706;2023-04-15T08:59:35;16.10;;;9.48;;
25213;SDS011;13160;51.834;4.706;2023-04-15T09:02:24;14.82;;;7.72;;
25213;SDS011;13160;51.834;4.706;2023-04-15T09:05:14;14.60;;;7.90;;
25213;SDS011;13160;51.834;4.706;2023-04-15T09:08:15;10.68;;;7.57;;
25213;SDS011;13160;51.834;4.706;2023-04-15T09:11:11;10.73;;;6.75;;
25213;SDS011;13160;51.834;4.706;2023-04-15T09:17:08;15.18;;;7.55;;
25213;SDS011;13160;51.834;4.706;2023-04-15T09:20:14;10.35;;;7.32;;
25213;SDS011;13160;51.834;4.706;2023-04-15T09:23:39;12.48;;;7.03;;
25213;SDS011;13160;51.834;4.706;2023-04-15T09:27:07;12.13;;;7.18;;
25213;SDS011;13160;51.834;4.706;2023-04-15T09:29:49;10.60;;;6.68;;
25213;SDS011;13160;51.834;4.706;2023-04-15T09:32:48;10.63;;;6.65;;
25213;SDS011;13160;51.834;4.706;2023-04-15T09:35:18;11.70;;;6.55;;
25213;SDS011;13160;51.834;4.706;2023-04-15T09:37:49;8.68;;;4.88;;
25213;SDS011;13160;51.834;4.706;2023-04-15T09:40:31;10.60;;;5.35;;
25213;SDS011;13160;51.834;4.706;2023-04-15T09:43:09;8.20;;;3.95;;
25213;SDS011;13160;51.834;4.706;2023-04-15T09:45:49;9.30;;;4.40;;
25213;SDS011;13160;51.834;4.706;2023-04-15T09:56:20;11.50;;;5.22;;
25213;SDS011;13160;51.834;4.706;2023-04-15T09:59:01;9.77;;;5.20;;
25213;SDS011;13160;51.834;4.706;2023-04-15T10:01:40;9.88;;;4.88;;
25213;SDS011;13160;51.834;4.706;2023-04-15T10:04:11;9.13;;;4.75;;
25213;SDS011;13160;51.834;4.706;2023-04-15T10:06:50;7.97;;;4.57;;
25213;SDS011;13160;51.834;4.706;2023-04-15T10:09:23;9.57;;;4.68;;
25213;SDS011;13160;51.834;4.706;2023-04-15T10:11:54;8.10;;;4.28;;
25213;SDS011;13160;51.834;4.706;2023-04-15T10:14:27;12.00;;;5.70;;
25213;SDS011;13160;51.834;4.706;2023-04-15T10:17:00;9.98;;;6.53;;
25213;SDS011;13160;51.834;4.706;2023-04-15T10:19:38;8.63;;;6.38;;
25213;SDS011;13160;51.834;4.706;2023-04-15T10:22:09;8.82;;;5.90;;
25213;SDS011;13160;51.834;4.706;2023-04-15T10:24:39;9.85;;;5.47;;
25213;SDS011;13160;51.834;4.706;2023-04-15T10:27:15;8.80;;;5.00;;
25213;SDS011;13160;51.834;4.706;2023-04-15T10:29:53;11.43;;;5.03;;
25213;SDS011;13160;51.834;4.706;2023-04-15T10:32:27;9.30;;;3.60;;
25213;SDS011;13160;51.834;4.706;2023-04-15T10:35:19;8.40;;;3.60;;
25213;SDS011;13160;51.834;4.706;2023-04-15T10:39:41;8.27;;;3.75;;
25213;SDS011;13160;51.834;4.706;2023-04-15T10:42:21;7.93;;;3.33;;
25213;SDS011;13160;51.834;4.706;2023-04-15T10:47:44;8.88;;;5.40;;
25213;SDS011;13160;51.834;4.706;2023-04-15T10:50:33;11.45;;;6.03;;
25213;SDS011;13160;51.834;4.706;2023-04-15T10:53:09;11.75;;;6.47;;
25213;SDS011;13160;51.834;4.706;2023-04-15T10:56:08;11.55;;;5.68;;
25213;SDS011;13160;51.834;4.706;2023-04-15T10:58:45;9.43;;;5.30;;
25213;SDS011;13160;51.834;4.706;2023-04-15T11:01:22;10.93;;;4.10;;
25213;SDS011;13160;51.834;4.706;2023-04-15T11:07:37;6.70;;;3.10;;
25213;SDS011;13160;51.834;4.706;2023-04-15T11:17:04;4.55;;;2.50;;
25213;SDS011;13160;51.834;4.706;2023-04-15T11:19:46;7.18;;;3.10;;
25213;SDS011;13160;51.834;4.706;2023-04-15T11:22:35;4.00;;;2.40;;
25213;SDS011;13160;51.834;4.706;2023-04-15T11:25:43;5.90;;;2.95;;
25213;SDS011;13160;51.834;4.706;2023-04-15T11:28:30;7.82;;;2.95;;
25213;SDS011;13160;51.834;4.706;2023-04-15T11:31:15;5.65;;;2.60;;
25213;SDS011;13160;51.834;4.706;2023-04-15T11:33:58;8.68;;;3.47;;
25213;SDS011;13160;51.834;4.706;2023-04-15T11:36:59;7.38;;;3.60;;
25213;SDS011;13160;51.834;4.706;2023-04-15T11:39:55;8.10;;;4.00;;
25213;SDS011;13160;51.834;4.706;2023-04-15T11:43:03;8.85;;;4.15;;
25213;SDS011;13160;51.834;4.706;2023-04-15T11:45:51;6.80;;;4.07;;
25213;SDS011;13160;51.834;4.706;2023-04-15T11:48:41;8.35;;;5.45;;
25213;SDS011;13160;51.834;4.706;2023-04-15T11:51:38;7.88;;;4.43;;
25213;SDS011;13160;51.834;4.706;2023-04-15T11:54:17;10.52;;;4.72;;
25213;SDS011;13160;51.834;4.706;2023-04-15T11:56:49;9.02;;;4.65;;
25213;SDS011;13160;51.834;4.706;2023-04-15T12:03:10;8.70;;;5.47;;
25213;SDS011;13160;51.834;4.706;2023-04-15T12:06:09;9.00;;;5.13;;
25213;SDS011;13160;51.834;4.706;2023-04-15T12:12:13;10.45;;;5.10;;
25213;SDS011;13160;51.834;4.706;2023-04-15T12:14:50;9.80;;;5.03;;
25213;SDS011;13160;51.834;4.706;2023-04-15T12:17:41;9.55;;;5.10;;
25213;SDS011;13160;51.834;4.706;2023-04-15T12:20:20;9.77;;;4.95;;
25213;SDS011;13160;51.834;4.706;2023-04-15T12:23:07;8.48;;;5.13;;
25213;SDS011;13160;51.834;4.706;2023-04-15T12:25:50;9.70;;;4.93;;
25213;SDS011;13160;51.834;4.706;2023-04-15T12:28:29;7.53;;;3.90;;
25213;SDS011;13160;51.834;4.706;2023-04-15T12:31:06;7.35;;;4.20;;
25213;SDS011;13160;51.834;4.706;2023-04-15T12:33:39;13.35;;;5.30;;
25213;SDS011;13160;51.834;4.706;2023-04-15T12:36:14;7.57;;;3.95;;
25213;SDS011;13160;51.834;4.706;2023-04-15T12:38:49;7.50;;;3.83;;
25213;SDS011;13160;51.834;4.706;2023-04-15T12:41:30;7.65;;;4.10;;
25213;SDS011;13160;51.834;4.706;2023-04-15T12:44:10;7.07;;;4.03;;
25213;SDS011;13160;51.834;4.706;2023-04-15T12:47:00;8.73;;;3.85;;
25213;SDS011;13160;51.834;4.706;2023-04-15T12:49:45;8.27;;;3.75;;
25213;SDS011;13160;51.834;4.706;2023-04-15T12:52:31;7.60;;;3.85;;
25213;SDS011;13160;51.834;4.706;2023-04-15T12:55:30;6.63;;;3.60;;
25213;SDS011;13160;51.834;4.706;2023-04-15T12:58:11;5.55;;;2.92;;
25213;SDS011;13160;51.834;4.706;2023-04-15T13:00:53;6.80;;;3.05;;
25213;SDS011;13160;51.834;4.706;2023-04-15T13:03:25;6.47;;;2.65;;
25213;SDS011;13160;51.834;4.706;2023-04-15T13:05:57;4.63;;;2.22;;
25213;SDS011;13160;51.834;4.706;2023-04-15T13:08:30;7.20;;;2.58;;
25213;SDS011;13160;51.834;4.706;2023-04-15T13:11:14;5.32;;;2.65;;
25213;SDS011;13160;51.834;4.706;2023-04-15T13:16:41;6.65;;;2.90;;
25213;SDS011;13160;51.834;4.706;2023-04-15T13:19:11;7.55;;;2.55;;
25213;SDS011;13160;51.834;4.706;2023-04-15T13:21:39;5.65;;;3.00;;
25213;SDS011;13160;51.834;4.706;2023-04-15T13:24:08;8.73;;;2.05;;
25213;SDS011;13160;51.834;4.706;2023-04-15T13:26:38;4.22;;;2.00;;
25213;SDS011;13160;51.834;4.706;2023-04-15T13:29:07;5.20;;;2.60;;
25213;SDS011;13160;51.834;4.706;2023-04-15T13:31:36;5.05;;;1.88;;
25213;SDS011;13160;51.834;4.706;2023-04-15T13:34:11;6.95;;;2.33;;
25213;SDS011;13160;51.834;4.706;2023-04-15T13:36:44;6.35;;;2.25;;
25213;SDS011;13160;51.834;4.706;2023-04-15T13:39:12;6.32;;;1.92;;
25213;SDS011;13160;51.834;4.706;2023-04-15T13:41:42;6.03;;;2.08;;
25213;SDS011;13160;51.834;4.706;2023-04-15T13:44:14;6.80;;;2.20;;
25213;SDS011;13160;51.834;4.706;2023-04-15T13:46:42;5.20;;;2.42;;
25213;SDS011;13160;51.834;4.706;2023-04-15T13:49:11;4.15;;;1.92;;
25213;SDS011;13160;51.834;4.706;2023-04-15T13:51:39;5.00;;;2.40;;
25213;SDS011;13160;51.834;4.706;2023-04-15T13:54:12;7.20;;;2.60;;
25213;SDS011;13160;51.834;4.706;2023-04-15T13:56:42;5.82;;;2.10;;
25213;SDS011;13160;51.834;4.706;2023-04-15T13:59:11;7.03;;;2.55;;
25213;SDS011;13160;51.834;4.706;2023-04-15T14:01:40;5.90;;;2.50;;
25213;SDS011;13160;51.834;4.706;2023-04-15T14:04:10;6.25;;;2.00;;
25213;SDS011;13160;51.834;4.706;2023-04-15T14:06:38;3.65;;;2.00;;
25213;SDS011;13160;51.834;4.706;2023-04-15T14:09:08;5.28;;;2.20;;
25213;SDS011;13160;51.834;4.706;2023-04-15T14:11:37;4.32;;;2.25;;
25213;SDS011;13160;51.834;4.706;2023-04-15T14:14:07;5.80;;;2.10;;
25213;SDS011;13160;51.834;4.706;2023-04-15T14:16:35;5.20;;;2.42;;
25213;SDS011;13160;51.834;4.706;2023-04-15T14:19:04;3.67;;;2.00;;
25213;SDS011;13160;51.834;4.706;2023-04-15T14:21:33;6.07;;;2.20;;
25213;SDS011;13160;51.834;4.706;2023-04-15T14:24:01;6.38;;;2.10;;
25213;SDS011;13160;51.834;4.706;2023-04-15T14:26:30;3.97;;;1.73;;
25213;SDS011;13160;51.834;4.706;2023-04-15T14:28:58;4.53;;;2.17;;
25213;SDS011;13160;51.834;4.706;2023-04-15T14:31:28;6.38;;;2.30;;
25213;SDS011;13160;51.834;4.706;2023-04-15T14:33:57;5.72;;;1.77;;
25213;SDS011;13160;51.834;4.706;2023-04-15T14:36:25;5.22;;;2.17;;
25213;SDS011;13160;51.834;4.706;2023-04-15T14:38:54;4.35;;;1.85;;
25213;SDS011;13160;51.834;4.706;2023-04-15T14:41:25;4.68;;;1.60;;
25213;SDS011;13160;51.834;4.706;2023-04-15T14:43:54;5.13;;;1.80;;
25213;SDS011;13160;51.834;4.706;2023-04-15T14:46:22;4.05;;;1.55;;
25213;SDS011;13160;51.834;4.706;2023-04-15T14:48:55;4.82;;;1.90;;
25213;SDS011;13160;51.834;4.706;2023-04-15T14:51:24;4.78;;;1.67;;
25213;SDS011;13160;51.834;4.706;2023-04-15T14:53:56;4.60;;;1.65;;
25213;SDS011;13160;51.834;4.706;2023-04-15T14:56:24;3.85;;;1.50;;
25213;SDS011;13160;51.834;4.706;2023-04-15T14:58:52;5.25;;;1.75;;
25213;SDS011;13160;51.834;4.706;2023-04-15T15:01:21;7.43;;;1.80;;
25213;SDS011;13160;51.834;4.706;2023-04-15T15:03:50;5.55;;;1.65;;
25213;SDS011;13160;51.834;4.706;2023-04-15T15:06:20;5.25;;;1.73;;
25213;SDS011;13160;51.834;4.706;2023-04-15T15:08:49;7.65;;;1.92;;
25213;SDS011;13160;51.834;4.706;2023-04-15T15:11:17;5.95;;;2.38;;
25213;SDS011;13160;51.834;4.706;2023-04-15T15:13:49;8.02;;;2.10;;
25213;SDS011;13160;51.834;4.706;2023-04-15T15:16:17;7.60;;;2.30;;
25213;SDS011;13160;51.834;4.706;2023-04-15T15:18:48;4.10;;;1.60;;
25213;SDS011;13160;51.834;4.706;2023-04-15T15:21:17;4.40;;;1.70;;
25213;SDS011;13160;51.834;4.706;2023-04-15T15:23:47;5.47;;;1.40;;
25213;SDS011;13160;51.834;4.706;2023-04-15T15:26:15;4.82;;;1.48;;
25213;SDS011;13160;51.834;4.706;2023-04-15T15:28:44;4.75;;;1.50;;
25213;SDS011;13160;51.834;4.706;2023-04-15T15:31:16;3.95;;;1.35;;
25213;SDS011;13160;51.834;4.706;2023-04-15T15:33:45;4.30;;;1.50;;
25213;SDS011;13160;51.834;4.706;2023-04-15T15:36:13;6.38;;;1.67;;
25213;SDS011;13160;51.834;4.706;2023-04-15T15:38:43;2.30;;;1.13;;
25213;SDS011;13160;51.834;4.706;2023-04-15T15:41:22;4.15;;;1.13;;
25213;SDS011;13160;51.834;4.706;2023-04-15T15:43:52;3.97;;;1.58;;
25213;SDS011;13160;51.834;4.706;2023-04-15T15:46:21;6.90;;;1.92;;
25213;SDS011;13160;51.834;4.706;2023-04-15T15:48:50;2.92;;;1.20;;
25213;SDS011;13160;51.834;4.706;2023-04-15T15:51:19;3.70;;;1.60;;
25213;SDS011;13160;51.834;4.706;2023-04-15T15:53:47;4.13;;;1.40;;